Portada
METAR-TAF:

METAR-TAF

Aeroports :

Chulitna, Alaska, Estats Units d'Amèrica

latitud: 62-53N, longitud: 149-50W, altitud: 381 m

Observació

L'informe es va fer fa 8 hores i 16 minuts, a les 20:47 UTC
Vent 6 kt del Sud
Temperatura 18°C
Humitat 37%
Pressió 1015 hPa
Visibilitat: 32.2 km
Escasses núvols a una alçada de 2300 ft
Núvols disperses a una alçada de 8000 ft

METAR: PAEC 252047Z 19006KT 20SM FEW023 SCT080 18/03 A2997 RMK NOSPECI

Hora: 21:03 (05:03 UTC)


TAF: manca

Observacions i pronòstics meteorològics de més de 4000 aeroports (METAR i TAF).

Les estacions disponibles són els punts grocs i vermells al mapa.

Posi el ratolí al punt desitjat per veure el nom de l'estació.

Feu clic per veure les observacions i els pronòstics meteorològics.

Per canviar el mapa: feu clic els botons verds amb una creu de color negre per apropar; al botó verd amb un guió per allunyar la imatge; o en les fletxes verdes per a mapes adjacents.


METAR-TAF: